Terminal Aerodrome Forecast
Issued by NWS Paducah, KY

Home | Current Version | Previous Version | Text Only | Print | Product List | Glossary On
Versions: 1 2 3 4 5 6 7 8 9 10 11 12 13 14 15 16 17 18 19
036
FTUS43 KPAH 250520
TAFPAH
TAF
KPAH 250520Z 2506/2606 00000KT P6SM SKC
     FM250800 00000KT 5SM BR SCT150
     FM251400 21005KT P6SM SCT040 BKN250
     FM251900 21005KT P6SM VCTS BKN045CB PROB30 2519/2601 -TSRA
     FM260100 VRB03KT P6SM SCT060 BKN150=

USA.gov is the U.S. government's official web portal to all federal, state and local government web resources and services.